createdAt,value
2022-10-01T00:02:00.216Z,3.83
2022-10-01T00:04:28.503Z,3.77
2022-10-01T00:06:59.195Z,3.90
2022-10-01T00:09:27.133Z,3.70
2022-10-01T00:11:56.601Z,3.77
2022-10-01T00:14:24.346Z,4.10
2022-10-01T00:16:52.185Z,3.97
2022-10-01T00:19:20.998Z,3.77
2022-10-01T00:21:48.809Z,3.70
2022-10-01T00:24:16.795Z,3.50
2022-10-01T00:26:45.518Z,4.10
2022-10-01T00:29:15.735Z,3.93
2022-10-01T00:31:44.071Z,4.20
2022-10-01T00:34:14.961Z,3.47
2022-10-01T00:36:42.851Z,4.00
2022-10-01T00:39:12.289Z,3.70
2022-10-01T00:41:40.931Z,3.90
2022-10-01T00:44:33.099Z,4.40
2022-10-01T00:47:24.609Z,4.57
2022-10-01T00:50:05.828Z,4.30
2022-10-01T00:52:39.798Z,4.70
2022-10-01T00:55:15.793Z,4.60
2022-10-01T00:57:45.534Z,7.17
2022-10-01T01:00:18.806Z,7.57
2022-10-01T01:02:46.835Z,6.70
2022-10-01T01:05:14.814Z,5.50
2022-10-01T01:07:46.990Z,8.40
2022-10-01T01:10:20.981Z,8.43
2022-10-01T01:13:12.844Z,8.50
2022-10-01T01:15:54.016Z,8.43
2022-10-01T01:18:32.349Z,10.97
2022-10-01T01:21:16.592Z,10.53
2022-10-01T01:24:20.708Z,12.10
2022-10-01T01:27:07.733Z,10.63
2022-10-01T01:29:43.871Z,9.43
2022-10-01T01:32:19.410Z,14.90
2022-10-01T01:34:52.420Z,15.05
2022-10-01T01:37:28.719Z,12.20
2022-10-01T01:40:00.998Z,14.73
2022-10-01T01:42:37.135Z,16.90
2022-10-01T01:45:13.585Z,18.00
2022-10-01T01:47:44.196Z,18.77
2022-10-01T01:50:15.682Z,16.67
2022-10-01T01:52:43.648Z,17.73
2022-10-01T01:55:11.674Z,17.80
2022-10-01T01:57:43.593Z,20.50
2022-10-01T02:00:14.267Z,22.17
2022-10-01T02:02:50.115Z,22.03
2022-10-01T02:05:23.319Z,19.67
2022-10-01T02:08:21.831Z,22.03
2022-10-01T02:11:09.318Z,21.30
2022-10-01T02:13:53.460Z,21.90
2022-10-01T02:16:33.824Z,20.53
2022-10-01T02:19:13.370Z,20.23
2022-10-01T02:21:55.198Z,16.93
2022-10-01T02:24:36.270Z,16.03
2022-10-01T02:27:15.596Z,19.23
2022-10-01T02:29:45.624Z,19.70
2022-10-01T02:32:18.438Z,20.10
2022-10-01T02:34:49.908Z,22.87
2022-10-01T02:37:23.187Z,22.67
2022-10-01T02:39:54.515Z,22.23
2022-10-01T02:42:27.430Z,21.33
2022-10-01T02:45:02.307Z,21.10
2022-10-01T02:47:39.485Z,20.23
2022-10-01T02:50:09.559Z,20.93
2022-10-01T02:52:45.789Z,17.97
2022-10-01T02:55:19.318Z,17.80
2022-10-01T02:57:47.492Z,18.57
2022-10-01T03:00:21.240Z,18.23
2022-10-01T03:02:50.960Z,21.07
2022-10-01T03:05:20.492Z,16.70
2022-10-01T03:07:48.980Z,19.27
2022-10-01T03:10:17.538Z,15.90
2022-10-01T03:12:46.404Z,20.57
2022-10-01T03:15:17.064Z,21.67
2022-10-01T03:17:45.102Z,17.73
2022-10-01T03:20:14.244Z,19.63
2022-10-01T03:22:46.348Z,21.17
2022-10-01T03:25:14.367Z,15.97
2022-10-01T03:27:42.623Z,20.50
2022-10-01T03:30:12.513Z,20.13
2022-10-01T03:32:40.425Z,18.40
2022-10-01T03:35:09.597Z,16.27
2022-10-01T03:37:39.599Z,11.13
2022-10-01T03:40:09.347Z,13.73
2022-10-01T03:42:37.159Z,16.80
2022-10-01T03:45:06.003Z,16.30
2022-10-01T03:47:34.095Z,15.23
2022-10-01T03:50:01.937Z,13.60
2022-10-01T03:52:30.064Z,15.17
2022-10-01T03:55:00.608Z,14.37
2022-10-01T03:57:28.334Z,13.20
2022-10-01T03:59:56.070Z,14.33
2022-10-01T04:02:24.067Z,12.13
2022-10-01T04:04:51.955Z,11.80
2022-10-01T04:07:19.717Z,11.57
2022-10-01T04:09:47.647Z,14.63
2022-10-01T04:12:16.789Z,11.37
2022-10-01T04:14:44.498Z,12.10
2022-10-01T04:17:12.241Z,9.97
2022-10-01T04:19:40.005Z,13.67
2022-10-01T04:22:07.833Z,12.00
2022-10-01T04:24:35.607Z,11.73
2022-10-01T04:27:03.610Z,10.80
2022-10-01T04:29:35.721Z,11.73
2022-10-01T04:32:07.483Z,12.30
2022-10-01T04:34:54.143Z,11.87
2022-10-01T04:37:23.354Z,8.83
2022-10-01T04:39:51.221Z,9.17
2022-10-01T04:42:19.191Z,9.53
2022-10-01T04:44:48.829Z,10.63
2022-10-01T04:47:16.582Z,10.37
2022-10-01T04:49:44.369Z,7.97
2022-10-01T04:52:12.139Z,9.47
2022-10-01T04:54:39.859Z,10.70
2022-10-01T04:57:07.942Z,6.67
2022-10-01T04:59:35.747Z,9.07
2022-10-01T05:02:04.891Z,7.57
2022-10-01T05:04:32.672Z,8.40
2022-10-01T05:07:00.390Z,6.30
2022-10-01T05:09:28.122Z,8.30
2022-10-01T05:11:55.824Z,8.07
2022-10-01T05:14:24.479Z,4.30
2022-10-01T05:16:52.281Z,5.43
2022-10-01T05:19:25.230Z,4.93
2022-10-01T05:21:55.405Z,4.95
2022-10-01T05:24:23.838Z,5.20
2022-10-01T05:26:53.966Z,5.53
2022-10-01T05:29:21.818Z,5.37
2022-10-01T05:31:50.291Z,5.03
2022-10-01T05:34:18.184Z,4.53
2022-10-01T05:36:47.329Z,5.63
2022-10-01T05:39:15.042Z,5.20
2022-10-01T05:41:42.891Z,5.13
2022-10-01T05:44:10.684Z,5.70
2022-10-01T05:46:38.621Z,4.90
2022-10-01T05:49:08.222Z,6.00
2022-10-01T05:51:36.711Z,5.17
2022-10-01T05:54:06.378Z,5.90
2022-10-01T05:56:34.999Z,5.83
2022-10-01T05:59:02.952Z,4.97
2022-10-01T06:01:32.363Z,7.13
2022-10-01T06:04:01.901Z,5.20
2022-10-01T06:06:29.900Z,6.03
2022-10-01T06:08:59.605Z,5.50
2022-10-01T06:11:28.741Z,5.63
2022-10-01T06:13:56.602Z,8.33
2022-10-01T06:16:24.618Z,7.70
2022-10-01T06:18:57.315Z,5.53
2022-10-01T06:21:25.343Z,7.93
2022-10-01T06:23:53.566Z,6.47
2022-10-01T06:26:21.796Z,5.50
2022-10-01T06:28:51.658Z,8.17
2022-10-01T06:31:21.111Z,7.87
2022-10-01T06:33:48.986Z,7.30
2022-10-01T06:36:16.846Z,6.07
2022-10-01T06:38:47.461Z,5.63
2022-10-01T06:41:15.247Z,7.80
2022-10-01T06:43:43.334Z,8.17
2022-10-01T06:46:12.736Z,7.37
2022-10-01T06:48:40.541Z,10.77
2022-10-01T06:51:08.650Z,9.93
2022-10-01T06:53:36.414Z,12.40
2022-10-01T06:56:07.007Z,11.37
2022-10-01T06:58:35.051Z,13.60
2022-10-01T07:01:03.795Z,9.27
2022-10-01T07:03:33.206Z,10.07
2022-10-01T07:06:03.640Z,13.83
2022-10-01T07:08:33.258Z,10.57
2022-10-01T07:11:02.428Z,10.93
2022-10-01T07:13:30.873Z,12.83
2022-10-01T07:15:58.712Z,9.93
2022-10-01T07:18:26.967Z,9.30
2022-10-01T07:20:58.114Z,7.53
2022-10-01T07:23:26.017Z,6.97
2022-10-01T07:25:54.233Z,9.40
2022-10-01T07:28:23.857Z,9.37
2022-10-01T07:31:00.332Z,10.23
2022-10-01T07:33:29.097Z,9.23
2022-10-01T07:36:01.318Z,6.47
2022-10-01T07:38:29.153Z,8.10
2022-10-01T07:40:58.806Z,9.27
2022-10-01T07:43:26.556Z,8.00
2022-10-01T07:45:57.963Z,8.43
2022-10-01T07:48:26.716Z,7.60
2022-10-01T07:50:54.819Z,7.53
2022-10-01T07:53:25.673Z,6.43
2022-10-01T07:55:53.739Z,7.60
2022-10-01T07:58:24.046Z,6.63
2022-10-01T08:00:56.026Z,9.23
2022-10-01T08:03:25.427Z,6.47
2022-10-01T08:05:54.173Z,5.37
2022-10-01T08:08:22.115Z,6.68
2022-10-01T08:10:51.238Z,6.30
2022-10-01T08:13:19.109Z,6.90
2022-10-01T08:15:53.642Z,7.18
2022-10-01T08:18:22.678Z,7.80
2022-10-01T08:20:50.640Z,6.05
2022-10-01T08:23:18.584Z,6.60
2022-10-01T08:25:47.849Z,6.23
2022-10-01T08:28:17.168Z,5.60
2022-10-01T08:30:45.014Z,6.72
2022-10-01T08:33:14.124Z,5.85
2022-10-01T08:35:46.282Z,7.40
2022-10-01T08:38:15.320Z,5.85
2022-10-01T08:40:48.168Z,6.00
2022-10-01T08:43:31.656Z,5.30
2022-10-01T08:46:04.749Z,6.30
2022-10-01T08:48:56.943Z,6.60
2022-10-01T08:51:35.111Z,6.22
2022-10-01T08:54:17.858Z,6.00
2022-10-01T08:56:47.847Z,6.03
2022-10-01T08:59:35.040Z,5.97
2022-10-01T09:02:10.520Z,6.65
2022-10-01T09:07:28.702Z,5.63
2022-10-01T09:10:11.414Z,4.60
2022-10-01T09:12:50.950Z,4.47
2022-10-01T09:15:31.413Z,4.03
2022-10-01T09:18:15.978Z,4.22
2022-10-01T09:20:51.672Z,2.85
2022-10-01T09:23:30.812Z,4.20
2022-10-01T09:26:00.408Z,3.55
2022-10-01T09:28:32.661Z,4.10
2022-10-01T09:31:16.422Z,3.47
2022-10-01T09:33:55.361Z,3.55
2022-10-01T09:36:36.054Z,3.70
2022-10-01T09:39:16.289Z,4.20
2022-10-01T09:41:46.181Z,4.85
2022-10-01T09:44:19.142Z,3.08
2022-10-01T09:46:48.476Z,3.88
2022-10-01T09:49:30.126Z,3.50
2022-10-01T09:52:06.156Z,3.67
2022-10-01T09:54:43.146Z,3.70
2022-10-01T09:57:15.632Z,3.42
2022-10-01T09:59:53.089Z,3.53
2022-10-01T10:02:30.228Z,2.95
2022-10-01T10:05:01.771Z,3.75
2022-10-01T10:07:32.783Z,3.25
2022-10-01T10:10:11.171Z,3.55
2022-10-01T10:12:43.291Z,3.85
2022-10-01T10:15:18.580Z,4.25
2022-10-01T10:20:32.967Z,3.60
2022-10-01T10:23:16.586Z,3.63
2022-10-01T10:25:55.000Z,3.33
2022-10-01T10:28:24.668Z,2.67
2022-10-01T10:30:55.865Z,3.13
2022-10-01T10:33:26.375Z,3.30
2022-10-01T10:36:02.087Z,3.05
2022-10-01T10:38:34.288Z,3.40
2022-10-01T10:41:03.802Z,3.25
2022-10-01T10:43:37.897Z,3.78
2022-10-01T10:46:08.314Z,3.72
2022-10-01T10:48:45.436Z,3.50
2022-10-01T10:51:14.454Z,3.28
2022-10-01T10:53:45.384Z,3.20
2022-10-01T10:56:25.294Z,3.10
2022-10-01T10:58:53.969Z,3.05
2022-10-01T11:01:28.827Z,3.45
2022-10-01T11:04:02.803Z,3.30
2022-10-01T11:06:30.664Z,3.28
2022-10-01T11:09:02.043Z,2.95
2022-10-01T11:11:52.259Z,2.80
2022-10-01T11:14:49.962Z,2.83
2022-10-01T11:17:44.728Z,2.90
2022-10-01T11:20:40.898Z,2.90
2022-10-01T11:26:24.384Z,3.00
2022-10-01T11:29:15.053Z,2.63
2022-10-01T11:31:54.920Z,2.72
2022-10-01T11:34:50.305Z,2.78
2022-10-01T11:37:41.606Z,2.38
2022-10-01T11:40:20.710Z,2.35
2022-10-01T11:42:52.333Z,2.45
2022-10-01T11:45:25.453Z,2.10
2022-10-01T11:48:00.266Z,2.50
2022-10-01T11:50:39.121Z,2.72
2022-10-01T11:53:18.913Z,2.65
2022-10-01T11:56:15.177Z,2.50
2022-10-01T11:58:54.568Z,3.13
2022-10-01T12:01:35.730Z,2.28
2022-10-01T12:04:22.669Z,2.08
2022-10-01T12:07:00.914Z,2.00
2022-10-01T12:09:53.353Z,1.98
2022-10-01T12:12:28.135Z,1.70
2022-10-01T12:15:09.357Z,1.50
2022-10-01T12:17:46.658Z,1.33
2022-10-01T12:20:24.940Z,1.20
2022-10-01T12:22:56.209Z,1.70
2022-10-01T12:25:37.793Z,1.40
2022-10-01T12:28:13.758Z,1.50
2022-10-01T12:30:53.804Z,1.48
2022-10-01T12:33:53.372Z,1.42
2022-10-01T12:36:38.777Z,1.40
2022-10-01T12:39:31.899Z,1.55
2022-10-01T12:42:25.414Z,1.27
2022-10-01T12:45:10.385Z,1.60
2022-10-01T12:47:51.498Z,1.40
2022-10-01T12:50:38.404Z,1.38
2022-10-01T12:53:23.183Z,1.50
2022-10-01T12:56:04.652Z,1.30
2022-10-01T12:59:06.271Z,1.50
2022-10-01T13:01:54.045Z,1.48
2022-10-01T13:04:43.113Z,1.30
2022-10-01T13:07:46.731Z,1.80
2022-10-01T13:10:35.208Z,1.60
2022-10-01T13:13:12.910Z,1.73
2022-10-01T13:15:49.283Z,2.47
2022-10-01T13:18:38.387Z,1.85
2022-10-01T13:21:17.698Z,1.55
2022-10-01T13:23:56.440Z,1.77
2022-10-01T13:26:36.902Z,1.80
2022-10-01T13:29:26.921Z,1.80
2022-10-01T13:32:02.234Z,1.83
2022-10-01T13:34:40.256Z,1.60
2022-10-01T13:37:15.076Z,1.25
2022-10-01T13:39:43.825Z,1.60
2022-10-01T13:42:24.116Z,1.45
2022-10-01T13:44:56.463Z,1.63
2022-10-01T13:47:26.770Z,1.50
2022-10-01T13:50:05.626Z,1.80
2022-10-01T13:52:34.876Z,1.50
2022-10-01T13:55:03.079Z,1.60
2022-10-01T13:57:34.959Z,1.10
2022-10-01T14:00:21.505Z,1.30
2022-10-01T14:03:06.536Z,1.20
2022-10-01T14:05:42.228Z,1.30
2022-10-01T14:08:19.070Z,1.48
2022-10-01T14:11:14.644Z,1.60
2022-10-01T14:14:07.129Z,1.90
2022-10-01T14:16:39.840Z,1.67
2022-10-01T14:19:17.377Z,1.50
2022-10-01T14:22:04.807Z,1.30
2022-10-01T14:24:50.696Z,1.70
2022-10-01T14:27:31.397Z,1.52
2022-10-01T14:30:10.688Z,1.48
2022-10-01T14:33:12.906Z,1.35
2022-10-01T14:35:57.288Z,1.80
2022-10-01T14:38:25.513Z,1.42
2022-10-01T14:40:53.967Z,1.25
2022-10-01T14:43:25.076Z,1.52
2022-10-01T14:45:57.475Z,1.85
2022-10-01T14:48:28.153Z,1.88
2022-10-01T14:51:01.105Z,1.35
2022-10-01T14:53:34.046Z,1.92
2022-10-01T14:56:07.929Z,1.60
2022-10-01T14:58:40.711Z,1.70
2022-10-01T15:01:19.055Z,1.40
2022-10-01T15:03:49.762Z,1.63
2022-10-01T15:06:21.984Z,1.30
2022-10-01T15:08:53.175Z,1.30
2022-10-01T15:11:24.643Z,1.20
2022-10-01T15:14:01.587Z,1.45
2022-10-01T15:16:31.118Z,1.58
2022-10-01T15:19:03.727Z,1.42
2022-10-01T15:21:38.459Z,1.42
2022-10-01T15:24:21.997Z,1.38
2022-10-01T15:26:52.206Z,1.20
2022-10-01T15:29:20.323Z,1.70
2022-10-01T15:31:53.049Z,1.50
2022-10-01T15:34:25.575Z,1.27
2022-10-01T15:36:55.934Z,1.40
2022-10-01T15:39:33.844Z,1.50
2022-10-01T15:42:08.787Z,1.90
2022-10-01T15:44:45.796Z,1.73
2022-10-01T15:47:34.828Z,1.38
2022-10-01T15:50:16.784Z,1.20
2022-10-01T15:53:09.971Z,1.13
2022-10-01T15:55:43.806Z,1.27
2022-10-01T15:58:19.953Z,2.13
2022-10-01T16:01:02.926Z,1.33
2022-10-01T16:03:34.637Z,1.63
2022-10-01T16:06:08.237Z,1.30
2022-10-01T16:08:58.400Z,1.45
2022-10-01T16:11:31.949Z,1.60
2022-10-01T16:14:28.018Z,1.60
2022-10-01T16:17:32.450Z,1.23
2022-10-01T16:20:17.659Z,1.70
2022-10-01T16:22:45.569Z,1.50
2022-10-01T16:25:32.610Z,1.65
2022-10-01T16:28:04.260Z,1.70
2022-10-01T16:30:33.977Z,2.20
2022-10-01T16:33:05.939Z,1.77
2022-10-01T16:35:40.311Z,2.08
2022-10-01T16:38:09.549Z,1.85
2022-10-01T16:40:42.203Z,1.88
2022-10-01T16:43:18.471Z,1.63
2022-10-01T16:45:46.542Z,1.80
2022-10-01T16:48:19.447Z,1.85
2022-10-01T16:50:47.649Z,6.95
2022-10-01T16:53:18.250Z,5.97
2022-10-01T16:55:47.945Z,3.33
2022-10-01T16:58:15.935Z,2.50
2022-10-01T17:00:44.264Z,1.75
2022-10-01T17:03:17.541Z,1.77
2022-10-01T17:05:46.542Z,1.83
2022-10-01T17:08:15.714Z,3.00
2022-10-01T17:10:51.134Z,3.45
2022-10-01T17:15:48.332Z,2.47
2022-10-01T17:18:16.446Z,2.47
2022-10-01T17:20:45.942Z,2.10
2022-10-01T17:23:16.670Z,1.88
2022-10-01T17:25:46.162Z,2.20
2022-10-01T17:28:20.408Z,1.73
2022-10-01T17:30:49.099Z,4.93
2022-10-01T17:33:19.536Z,2.25
2022-10-01T17:35:51.984Z,2.03
2022-10-01T17:38:20.995Z,2.50
2022-10-01T17:40:55.452Z,2.08
2022-10-01T17:43:25.611Z,1.92
2022-10-01T17:45:57.151Z,1.65
2022-10-01T17:48:25.701Z,1.77
2022-10-01T17:51:04.142Z,2.10
2022-10-01T17:53:39.644Z,1.60
2022-10-01T17:56:12.899Z,1.88
2022-10-01T17:58:45.711Z,2.20
2022-10-01T18:01:16.953Z,1.95
2022-10-01T18:03:45.306Z,2.40
2022-10-01T18:06:16.514Z,1.80
2022-10-01T18:08:55.180Z,1.63
2022-10-01T18:11:25.974Z,1.92
2022-10-01T18:13:55.280Z,1.90
2022-10-01T18:16:24.631Z,1.80
2022-10-01T18:21:45.781Z,2.83
2022-10-01T18:24:15.197Z,1.92
2022-10-01T18:26:45.463Z,3.22
2022-10-01T18:29:20.027Z,2.33
2022-10-01T18:31:52.498Z,2.03
2022-10-01T18:34:31.291Z,2.20
2022-10-01T18:37:05.763Z,2.17
2022-10-01T18:39:39.876Z,2.00
2022-10-01T18:42:18.225Z,2.40
2022-10-01T18:44:53.146Z,1.83
2022-10-01T18:47:38.803Z,1.92
2022-10-01T18:50:27.504Z,1.95
2022-10-01T18:53:18.737Z,2.40
2022-10-01T18:56:16.192Z,1.98
2022-10-01T18:59:17.757Z,1.90
2022-10-01T19:02:08.521Z,1.90
2022-10-01T19:05:18.107Z,2.60
2022-10-01T19:08:06.816Z,2.10
2022-10-01T19:10:41.502Z,2.57
2022-10-01T19:13:22.131Z,2.45
2022-10-01T19:16:11.928Z,1.97
2022-10-01T19:19:01.480Z,2.30
2022-10-01T19:21:40.886Z,2.27
2022-10-01T19:24:51.201Z,2.20
2022-10-01T19:27:39.008Z,2.20
2022-10-01T19:30:11.401Z,2.30
2022-10-01T19:32:47.468Z,3.30
2022-10-01T19:35:22.561Z,2.10
2022-10-01T19:37:56.719Z,2.08
2022-10-01T19:40:34.868Z,2.40
2022-10-01T19:43:13.692Z,2.40
2022-10-01T19:45:54.473Z,2.40
2022-10-01T19:48:33.044Z,2.43
2022-10-01T19:51:10.053Z,2.43
2022-10-01T19:53:43.361Z,2.30
2022-10-01T19:56:18.616Z,2.20
2022-10-01T19:58:46.423Z,2.45
2022-10-01T20:01:20.790Z,3.47
2022-10-01T20:03:59.411Z,3.00
2022-10-01T20:06:34.034Z,3.03
2022-10-01T20:09:15.280Z,3.00
2022-10-01T20:11:53.223Z,2.77
2022-10-01T20:14:58.430Z,2.90
2022-10-01T20:17:38.840Z,3.53
2022-10-01T20:20:17.199Z,4.13
2022-10-01T20:23:02.900Z,2.67
2022-10-01T20:25:43.123Z,3.60
2022-10-01T20:28:24.735Z,4.85
2022-10-01T20:31:05.748Z,6.03
2022-10-01T20:33:46.702Z,4.03
2022-10-01T20:36:26.057Z,4.30
2022-10-01T20:39:04.422Z,3.20
2022-10-01T20:41:44.842Z,3.17
2022-10-01T20:44:21.848Z,3.13
2022-10-01T20:46:55.952Z,3.00
2022-10-01T20:49:32.413Z,2.70
2022-10-01T20:52:10.963Z,2.20
2022-10-01T20:54:48.289Z,2.63
2022-10-01T20:57:31.202Z,2.40
2022-10-01T21:00:08.388Z,2.13
2022-10-01T21:02:42.564Z,2.50
2022-10-01T21:05:19.437Z,2.17
2022-10-01T21:07:57.757Z,2.27
2022-10-01T21:10:36.459Z,2.30
2022-10-01T21:13:15.834Z,2.20
2022-10-01T21:15:57.942Z,2.10
2022-10-01T21:18:41.386Z,2.40
2022-10-01T21:21:26.615Z,3.03
2022-10-01T21:24:11.978Z,2.70
2022-10-01T21:26:56.486Z,3.20
2022-10-01T21:29:55.620Z,3.17
2022-10-01T21:32:50.801Z,3.33
2022-10-01T21:35:32.265Z,3.90
2022-10-01T21:38:11.745Z,4.00
2022-10-01T21:41:24.912Z,4.70
2022-10-01T21:44:22.470Z,3.97
2022-10-01T21:47:00.747Z,3.27
2022-10-01T21:49:48.145Z,3.83
2022-10-01T21:52:35.675Z,4.40
2022-10-01T21:55:30.196Z,5.17
2022-10-01T21:58:19.972Z,5.07
2022-10-01T22:01:08.166Z,5.70
2022-10-01T22:03:47.972Z,5.77
2022-10-01T22:06:26.438Z,6.03
2022-10-01T22:09:06.875Z,6.37
2022-10-01T22:11:44.525Z,6.10
2022-10-01T22:14:16.988Z,6.10
2022-10-01T22:16:54.958Z,8.10
2022-10-01T22:19:29.556Z,6.93
2022-10-01T22:22:05.208Z,8.25
2022-10-01T22:27:16.124Z,6.07
2022-10-01T22:29:53.309Z,6.60
2022-10-01T22:32:26.905Z,6.70
2022-10-01T22:35:03.797Z,6.33
2022-10-01T22:37:40.551Z,6.80
2022-10-01T22:40:18.123Z,7.27
2022-10-01T22:42:58.411Z,6.83
2022-10-01T22:45:45.470Z,7.47
2022-10-01T22:48:39.085Z,7.57
2022-10-01T22:51:34.262Z,7.23
2022-10-01T22:54:32.913Z,7.67
2022-10-01T22:57:18.809Z,7.70
2022-10-01T23:00:01.293Z,7.88
2022-10-01T23:02:38.247Z,7.40
2022-10-01T23:05:22.778Z,7.70
2022-10-01T23:08:06.836Z,8.97
2022-10-01T23:10:51.095Z,8.00
2022-10-01T23:13:30.160Z,9.00
2022-10-01T23:16:10.360Z,8.63
2022-10-01T23:18:54.245Z,8.10
2022-10-01T23:21:41.334Z,8.77
2022-10-01T23:24:31.820Z,7.80
2022-10-01T23:27:22.386Z,6.67
2022-10-01T23:30:11.733Z,6.97
2022-10-01T23:33:12.847Z,6.57
2022-10-01T23:35:51.158Z,7.53
2022-10-01T23:38:45.822Z,7.33
2022-10-01T23:41:23.776Z,6.67
2022-10-01T23:44:03.435Z,6.60
2022-10-01T23:46:35.393Z,6.67
2022-10-01T23:49:11.669Z,6.07
2022-10-01T23:51:50.357Z,6.27
2022-10-01T23:54:30.084Z,7.33
2022-10-01T23:57:07.548Z,6.77
2022-10-01T23:59:42.228Z,7.40
